sensor_id;sensor_type;location;lat;lon;timestamp;temperature;humidity
19232;DHT22;9750;48.730;10.294;2023-03-12T00:00:08;1.30;91.20
19232;DHT22;9750;48.730;10.294;2023-03-12T00:02:35;1.30;91.30
19232;DHT22;9750;48.730;10.294;2023-03-12T00:05:03;1.30;91.30
19232;DHT22;9750;48.730;10.294;2023-03-12T00:07:31;1.30;91.30
19232;DHT22;9750;48.730;10.294;2023-03-12T00:10:01;1.30;91.30
19232;DHT22;9750;48.730;10.294;2023-03-12T00:12:28;1.30;91.40
19232;DHT22;9750;48.730;10.294;2023-03-12T00:14:57;1.30;91.50
19232;DHT22;9750;48.730;10.294;2023-03-12T00:17:31;1.30;91.50
19232;DHT22;9750;48.730;10.294;2023-03-12T00:19:58;1.30;91.50
19232;DHT22;9750;48.730;10.294;2023-03-12T00:22:25;1.30;91.70
19232;DHT22;9750;48.730;10.294;2023-03-12T00:24:53;1.30;91.70
19232;DHT22;9750;48.730;10.294;2023-03-12T00:27:23;1.30;91.50
19232;DHT22;9750;48.730;10.294;2023-03-12T00:29:50;1.20;91.70
19232;DHT22;9750;48.730;10.294;2023-03-12T00:32:19;1.20;91.80
19232;DHT22;9750;48.730;10.294;2023-03-12T00:34:49;1.10;91.50
19232;DHT22;9750;48.730;10.294;2023-03-12T00:37:17;1.10;91.70
19232;DHT22;9750;48.730;10.294;2023-03-12T00:39:44;1.10;92.00
19232;DHT22;9750;48.730;10.294;2023-03-12T00:42:11;1.10;91.80
19232;DHT22;9750;48.730;10.294;2023-03-12T00:44:39;1.10;91.60
19232;DHT22;9750;48.730;10.294;2023-03-12T00:47:06;1.10;91.60
19232;DHT22;9750;48.730;10.294;2023-03-12T00:49:35;1.00;91.50
19232;DHT22;9750;48.730;10.294;2023-03-12T00:52:03;1.10;91.70
19232;DHT22;9750;48.730;10.294;2023-03-12T00:54:31;1.00;91.80
19232;DHT22;9750;48.730;10.294;2023-03-12T01:00:20;1.10;91.90
19232;DHT22;9750;48.730;10.294;2023-03-12T01:02:48;1.00;92.00
19232;DHT22;9750;48.730;10.294;2023-03-12T01:05:17;1.10;92.10
19232;DHT22;9750;48.730;10.294;2023-03-12T01:07:52;1.00;92.00
19232;DHT22;9750;48.730;10.294;2023-03-12T01:10:20;1.00;92.00
19232;DHT22;9750;48.730;10.294;2023-03-12T01:12:47;1.00;91.90
19232;DHT22;9750;48.730;10.294;2023-03-12T01:15:16;1.10;92.10
19232;DHT22;9750;48.730;10.294;2023-03-12T01:17:44;1.00;92.00
19232;DHT22;9750;48.730;10.294;2023-03-12T01:20:11;1.00;92.00
19232;DHT22;9750;48.730;10.294;2023-03-12T01:22:40;1.00;92.20
19232;DHT22;9750;48.730;10.294;2023-03-12T01:25:09;1.00;91.90
19232;DHT22;9750;48.730;10.294;2023-03-12T01:27:37;1.00;91.90
19232;DHT22;9750;48.730;10.294;2023-03-12T01:30:05;1.00;91.80
19232;DHT22;9750;48.730;10.294;2023-03-12T01:32:32;0.90;91.90
19232;DHT22;9750;48.730;10.294;2023-03-12T01:35:00;0.90;91.80
19232;DHT22;9750;48.730;10.294;2023-03-12T01:40:50;0.80;92.00
19232;DHT22;9750;48.730;10.294;2023-03-12T01:43:23;0.80;92.10
19232;DHT22;9750;48.730;10.294;2023-03-12T01:46:15;0.80;92.20
19232;DHT22;9750;48.730;10.294;2023-03-12T01:48:47;0.90;92.30
19232;DHT22;9750;48.730;10.294;2023-03-12T01:51:17;0.80;92.40
19232;DHT22;9750;48.730;10.294;2023-03-12T01:53:47;0.80;92.20
19232;DHT22;9750;48.730;10.294;2023-03-12T01:56:17;0.90;92.20
19232;DHT22;9750;48.730;10.294;2023-03-12T01:58:48;0.90;92.20
19232;DHT22;9750;48.730;10.294;2023-03-12T02:01:17;0.90;92.10
19232;DHT22;9750;48.730;10.294;2023-03-12T02:03:46;0.90;92.10
19232;DHT22;9750;48.730;10.294;2023-03-12T02:06:15;1.00;92.10
19232;DHT22;9750;48.730;10.294;2023-03-12T02:08:46;1.00;92.20
19232;DHT22;9750;48.730;10.294;2023-03-12T02:11:13;1.00;92.20
19232;DHT22;9750;48.730;10.294;2023-03-12T02:13:42;1.10;92.20
19232;DHT22;9750;48.730;10.294;2023-03-12T02:16:09;1.10;92.30
19232;DHT22;9750;48.730;10.294;2023-03-12T02:18:37;1.10;92.30
19232;DHT22;9750;48.730;10.294;2023-03-12T02:21:12;1.20;92.20
19232;DHT22;9750;48.730;10.294;2023-03-12T02:23:44;1.20;92.00
19232;DHT22;9750;48.730;10.294;2023-03-12T02:26:16;1.20;91.90
19232;DHT22;9750;48.730;10.294;2023-03-12T02:28:45;1.20;91.90
19232;DHT22;9750;48.730;10.294;2023-03-12T02:31:15;1.20;92.10
19232;DHT22;9750;48.730;10.294;2023-03-12T02:33:43;1.20;92.20
19232;DHT22;9750;48.730;10.294;2023-03-12T02:36:11;1.20;92.20
19232;DHT22;9750;48.730;10.294;2023-03-12T02:38:40;1.20;92.30
19232;DHT22;9750;48.730;10.294;2023-03-12T02:41:17;1.30;92.40
19232;DHT22;9750;48.730;10.294;2023-03-12T02:43:48;1.30;92.00
19232;DHT22;9750;48.730;10.294;2023-03-12T02:46:16;1.30;91.90
19232;DHT22;9750;48.730;10.294;2023-03-12T02:48:43;1.30;91.90
19232;DHT22;9750;48.730;10.294;2023-03-12T02:51:10;1.30;91.90
19232;DHT22;9750;48.730;10.294;2023-03-12T02:53:38;1.30;91.90
19232;DHT22;9750;48.730;10.294;2023-03-12T02:56:06;1.30;92.10
19232;DHT22;9750;48.730;10.294;2023-03-12T02:58:35;1.20;92.10
19232;DHT22;9750;48.730;10.294;2023-03-12T03:01:02;1.20;92.20
19232;DHT22;9750;48.730;10.294;2023-03-12T03:03:30;1.20;92.20
19232;DHT22;9750;48.730;10.294;2023-03-12T03:05:57;1.20;92.20
19232;DHT22;9750;48.730;10.294;2023-03-12T03:08:24;1.20;92.40
19232;DHT22;9750;48.730;10.294;2023-03-12T03:10:52;1.30;92.20
19232;DHT22;9750;48.730;10.294;2023-03-12T03:13:19;1.30;92.00
19232;DHT22;9750;48.730;10.294;2023-03-12T03:15:48;1.40;91.80
19232;DHT22;9750;48.730;10.294;2023-03-12T03:21:37;1.50;91.90
19232;DHT22;9750;48.730;10.294;2023-03-12T03:24:05;1.50;91.70
19232;DHT22;9750;48.730;10.294;2023-03-12T03:26:32;1.50;91.50
19232;DHT22;9750;48.730;10.294;2023-03-12T03:29:00;1.60;91.50
19232;DHT22;9750;48.730;10.294;2023-03-12T03:31:28;1.60;91.30
19232;DHT22;9750;48.730;10.294;2023-03-12T03:33:56;1.60;91.30
19232;DHT22;9750;48.730;10.294;2023-03-12T03:36:23;1.60;91.20
19232;DHT22;9750;48.730;10.294;2023-03-12T03:38:50;1.70;91.10
19232;DHT22;9750;48.730;10.294;2023-03-12T03:41:18;1.70;91.00
19232;DHT22;9750;48.730;10.294;2023-03-12T03:43:46;1.70;91.00
19232;DHT22;9750;48.730;10.294;2023-03-12T03:46:14;1.80;91.00
19232;DHT22;9750;48.730;10.294;2023-03-12T03:48:42;1.80;91.00
19232;DHT22;9750;48.730;10.294;2023-03-12T03:51:12;1.80;90.80
19232;DHT22;9750;48.730;10.294;2023-03-12T03:53:39;1.70;90.70
19232;DHT22;9750;48.730;10.294;2023-03-12T03:56:08;1.80;90.80
19232;DHT22;9750;48.730;10.294;2023-03-12T03:58:35;1.80;90.80
19232;DHT22;9750;48.730;10.294;2023-03-12T04:01:03;1.80;90.80
19232;DHT22;9750;48.730;10.294;2023-03-12T04:03:31;1.80;90.70
19232;DHT22;9750;48.730;10.294;2023-03-12T04:06:01;1.80;90.60
19232;DHT22;9750;48.730;10.294;2023-03-12T04:08:30;1.80;90.50
19232;DHT22;9750;48.730;10.294;2023-03-12T04:11:05;1.80;90.60
19232;DHT22;9750;48.730;10.294;2023-03-12T04:13:33;1.80;90.70
19232;DHT22;9750;48.730;10.294;2023-03-12T04:16:00;1.80;90.80
19232;DHT22;9750;48.730;10.294;2023-03-12T04:18:28;1.80;90.80
19232;DHT22;9750;48.730;10.294;2023-03-12T04:20:55;1.80;90.70
19232;DHT22;9750;48.730;10.294;2023-03-12T04:23:24;1.70;90.80
19232;DHT22;9750;48.730;10.294;2023-03-12T04:25:51;1.80;91.00
19232;DHT22;9750;48.730;10.294;2023-03-12T04:28:18;1.80;90.80
19232;DHT22;9750;48.730;10.294;2023-03-12T04:30:53;1.80;90.90
19232;DHT22;9750;48.730;10.294;2023-03-12T04:33:20;1.80;90.80
19232;DHT22;9750;48.730;10.294;2023-03-12T04:35:50;1.80;90.80
19232;DHT22;9750;48.730;10.294;2023-03-12T04:38:37;1.80;90.80
19232;DHT22;9750;48.730;10.294;2023-03-12T04:41:06;1.80;90.80
19232;DHT22;9750;48.730;10.294;2023-03-12T04:43:34;1.80;90.80
19232;DHT22;9750;48.730;10.294;2023-03-12T04:46:02;1.80;90.80
19232;DHT22;9750;48.730;10.294;2023-03-12T04:48:30;1.80;90.70
19232;DHT22;9750;48.730;10.294;2023-03-12T04:50:57;1.80;90.80
19232;DHT22;9750;48.730;10.294;2023-03-12T04:53:24;1.80;90.70
19232;DHT22;9750;48.730;10.294;2023-03-12T04:55:53;1.90;90.70
19232;DHT22;9750;48.730;10.294;2023-03-12T05:01:42;2.00;90.60
19232;DHT22;9750;48.730;10.294;2023-03-12T05:04:10;2.00;91.00
19232;DHT22;9750;48.730;10.294;2023-03-12T05:06:37;2.00;90.90
19232;DHT22;9750;48.730;10.294;2023-03-12T05:09:04;2.00;90.90
19232;DHT22;9750;48.730;10.294;2023-03-12T05:11:33;1.80;91.00
19232;DHT22;9750;48.730;10.294;2023-03-12T05:14:00;1.80;91.60
19232;DHT22;9750;48.730;10.294;2023-03-12T05:16:27;1.80;91.60
19232;DHT22;9750;48.730;10.294;2023-03-12T05:18:54;1.80;91.60
19232;DHT22;9750;48.730;10.294;2023-03-12T05:21:22;1.80;91.50
19232;DHT22;9750;48.730;10.294;2023-03-12T05:23:49;1.80;91.60
19232;DHT22;9750;48.730;10.294;2023-03-12T05:26:18;1.80;91.80
19232;DHT22;9750;48.730;10.294;2023-03-12T05:28:48;1.80;91.70
19232;DHT22;9750;48.730;10.294;2023-03-12T05:31:15;1.90;91.70
19232;DHT22;9750;48.730;10.294;2023-03-12T05:33:43;1.90;91.50
19232;DHT22;9750;48.730;10.294;2023-03-12T05:36:12;1.90;91.10
19232;DHT22;9750;48.730;10.294;2023-03-12T05:38:39;2.00;91.50
19232;DHT22;9750;48.730;10.294;2023-03-12T05:41:08;2.10;91.30
19232;DHT22;9750;48.730;10.294;2023-03-12T05:43:35;2.10;91.30
19232;DHT22;9750;48.730;10.294;2023-03-12T05:46:04;2.10;91.30
19232;DHT22;9750;48.730;10.294;2023-03-12T05:48:31;2.10;91.40
19232;DHT22;9750;48.730;10.294;2023-03-12T05:50:59;2.10;91.60
19232;DHT22;9750;48.730;10.294;2023-03-12T05:53:26;2.10;91.70
19232;DHT22;9750;48.730;10.294;2023-03-12T05:55:53;2.10;91.60
19232;DHT22;9750;48.730;10.294;2023-03-12T05:58:20;2.10;91.70
19232;DHT22;9750;48.730;10.294;2023-03-12T06:00:48;2.10;91.90
19232;DHT22;9750;48.730;10.294;2023-03-12T06:03:16;2.10;91.70
19232;DHT22;9750;48.730;10.294;2023-03-12T06:05:44;2.00;91.80
19232;DHT22;9750;48.730;10.294;2023-03-12T06:11:34;2.10;92.20
19232;DHT22;9750;48.730;10.294;2023-03-12T06:14:02;2.20;91.90
19232;DHT22;9750;48.730;10.294;2023-03-12T06:16:29;2.20;92.30
19232;DHT22;9750;48.730;10.294;2023-03-12T06:19:00;2.20;91.80
19232;DHT22;9750;48.730;10.294;2023-03-12T06:21:30;2.30;91.60
19232;DHT22;9750;48.730;10.294;2023-03-12T06:23:58;2.40;91.40
19232;DHT22;9750;48.730;10.294;2023-03-12T06:26:26;2.50;91.30
19232;DHT22;9750;48.730;10.294;2023-03-12T06:28:54;2.50;91.30
19232;DHT22;9750;48.730;10.294;2023-03-12T06:31:21;2.50;91.30
19232;DHT22;9750;48.730;10.294;2023-03-12T06:33:49;2.60;91.20
19232;DHT22;9750;48.730;10.294;2023-03-12T06:36:18;2.60;91.20
19232;DHT22;9750;48.730;10.294;2023-03-12T06:38:45;2.70;91.30
19232;DHT22;9750;48.730;10.294;2023-03-12T06:41:14;2.70;91.40
19232;DHT22;9750;48.730;10.294;2023-03-12T06:43:42;2.70;91.90
19232;DHT22;9750;48.730;10.294;2023-03-12T06:46:12;2.70;92.20
19232;DHT22;9750;48.730;10.294;2023-03-12T06:48:40;2.60;92.50
19232;DHT22;9750;48.730;10.294;2023-03-12T06:51:08;2.60;92.70
19232;DHT22;9750;48.730;10.294;2023-03-12T06:53:37;2.50;92.90
19232;DHT22;9750;48.730;10.294;2023-03-12T06:56:05;2.50;92.70
19232;DHT22;9750;48.730;10.294;2023-03-12T06:58:32;2.50;92.70
19232;DHT22;9750;48.730;10.294;2023-03-12T07:01:00;2.60;93.00
19232;DHT22;9750;48.730;10.294;2023-03-12T07:03:27;2.70;93.10
19232;DHT22;9750;48.730;10.294;2023-03-12T07:05:55;2.70;93.20
19232;DHT22;9750;48.730;10.294;2023-03-12T07:08:24;2.70;93.20
19232;DHT22;9750;48.730;10.294;2023-03-12T07:10:53;2.80;93.00
19232;DHT22;9750;48.730;10.294;2023-03-12T07:13:20;2.80;92.90
19232;DHT22;9750;48.730;10.294;2023-03-12T07:15:47;2.80;93.00
19232;DHT22;9750;48.730;10.294;2023-03-12T07:18:15;2.90;93.10
19232;DHT22;9750;48.730;10.294;2023-03-12T07:20:43;3.00;93.20
19232;DHT22;9750;48.730;10.294;2023-03-12T07:23:12;3.00;93.30
19232;DHT22;9750;48.730;10.294;2023-03-12T07:25:41;3.10;93.30
19232;DHT22;9750;48.730;10.294;2023-03-12T07:28:11;3.20;93.50
19232;DHT22;9750;48.730;10.294;2023-03-12T07:30:38;3.30;93.60
19232;DHT22;9750;48.730;10.294;2023-03-12T07:33:07;3.40;93.80
19232;DHT22;9750;48.730;10.294;2023-03-12T07:35:36;3.40;93.90
19232;DHT22;9750;48.730;10.294;2023-03-12T07:38:04;3.50;94.10
19232;DHT22;9750;48.730;10.294;2023-03-12T07:40:31;3.60;94.30
19232;DHT22;9750;48.730;10.294;2023-03-12T07:42:58;3.70;94.40
19232;DHT22;9750;48.730;10.294;2023-03-12T07:45:27;3.80;94.40
19232;DHT22;9750;48.730;10.294;2023-03-12T07:47:54;3.90;94.50
19232;DHT22;9750;48.730;10.294;2023-03-12T07:50:22;3.90;94.50
19232;DHT22;9750;48.730;10.294;2023-03-12T07:52:49;3.90;94.70
19232;DHT22;9750;48.730;10.294;2023-03-12T07:55:16;3.90;94.70
19232;DHT22;9750;48.730;10.294;2023-03-12T07:57:44;4.00;94.90
19232;DHT22;9750;48.730;10.294;2023-03-12T08:00:12;4.10;95.00
19232;DHT22;9750;48.730;10.294;2023-03-12T08:02:41;4.20;95.00
19232;DHT22;9750;48.730;10.294;2023-03-12T08:05:09;4.20;94.80
19232;DHT22;9750;48.730;10.294;2023-03-12T08:07:37;4.30;95.00
19232;DHT22;9750;48.730;10.294;2023-03-12T08:10:06;4.30;95.20
19232;DHT22;9750;48.730;10.294;2023-03-12T08:12:34;4.30;95.20
19232;DHT22;9750;48.730;10.294;2023-03-12T08:15:02;4.40;95.30
19232;DHT22;9750;48.730;10.294;2023-03-12T08:17:29;4.40;95.20
19232;DHT22;9750;48.730;10.294;2023-03-12T08:19:58;4.40;95.30
19232;DHT22;9750;48.730;10.294;2023-03-12T08:22:25;4.50;95.40
19232;DHT22;9750;48.730;10.294;2023-03-12T08:24:53;4.60;95.60
19232;DHT22;9750;48.730;10.294;2023-03-12T08:27:20;4.60;95.60
19232;DHT22;9750;48.730;10.294;2023-03-12T08:29:47;4.70;95.70
19232;DHT22;9750;48.730;10.294;2023-03-12T08:32:15;4.70;95.90
19232;DHT22;9750;48.730;10.294;2023-03-12T08:34:42;4.80;95.90
19232;DHT22;9750;48.730;10.294;2023-03-12T08:37:11;4.80;95.70
19232;DHT22;9750;48.730;10.294;2023-03-12T08:39:38;4.90;95.90
19232;DHT22;9750;48.730;10.294;2023-03-12T08:42:06;5.00;95.90
19232;DHT22;9750;48.730;10.294;2023-03-12T08:44:33;5.10;96.10
19232;DHT22;9750;48.730;10.294;2023-03-12T08:47:01;5.10;96.20
19232;DHT22;9750;48.730;10.294;2023-03-12T08:49:28;5.10;96.10
19232;DHT22;9750;48.730;10.294;2023-03-12T08:51:55;5.20;96.30
19232;DHT22;9750;48.730;10.294;2023-03-12T08:54:24;5.20;96.20
19232;DHT22;9750;48.730;10.294;2023-03-12T08:56:51;5.30;96.10
19232;DHT22;9750;48.730;10.294;2023-03-12T08:59:19;5.30;95.90
19232;DHT22;9750;48.730;10.294;2023-03-12T09:01:48;5.30;96.10
19232;DHT22;9750;48.730;10.294;2023-03-12T09:04:15;5.40;96.00
19232;DHT22;9750;48.730;10.294;2023-03-12T09:06:43;5.40;95.70
19232;DHT22;9750;48.730;10.294;2023-03-12T09:09:10;5.40;95.50
19232;DHT22;9750;48.730;10.294;2023-03-12T09:11:39;5.40;95.70
19232;DHT22;9750;48.730;10.294;2023-03-12T09:14:07;5.40;95.50
19232;DHT22;9750;48.730;10.294;2023-03-12T09:16:34;5.50;95.60
19232;DHT22;9750;48.730;10.294;2023-03-12T09:19:02;5.50;95.60
19232;DHT22;9750;48.730;10.294;2023-03-12T09:21:29;5.60;95.80
19232;DHT22;9750;48.730;10.294;2023-03-12T09:23:56;5.60;95.70
19232;DHT22;9750;48.730;10.294;2023-03-12T09:26:24;5.60;96.10
19232;DHT22;9750;48.730;10.294;2023-03-12T09:28:52;5.70;95.90
19232;DHT22;9750;48.730;10.294;2023-03-12T09:31:20;5.70;96.00
19232;DHT22;9750;48.730;10.294;2023-03-12T09:33:47;5.70;96.10
19232;DHT22;9750;48.730;10.294;2023-03-12T09:36:14;5.80;96.40
19232;DHT22;9750;48.730;10.294;2023-03-12T09:38:41;5.80;96.20
19232;DHT22;9750;48.730;10.294;2023-03-12T09:41:17;5.90;96.60
19232;DHT22;9750;48.730;10.294;2023-03-12T09:43:49;5.90;96.50
19232;DHT22;9750;48.730;10.294;2023-03-12T09:46:23;6.00;96.40
19232;DHT22;9750;48.730;10.294;2023-03-12T09:48:55;6.10;96.60
19232;DHT22;9750;48.730;10.294;2023-03-12T09:51:30;6.20;96.60
19232;DHT22;9750;48.730;10.294;2023-03-12T09:54:01;6.20;96.80
19232;DHT22;9750;48.730;10.294;2023-03-12T09:56:29;6.30;96.70
19232;DHT22;9750;48.730;10.294;2023-03-12T09:58:57;6.30;96.30
19232;DHT22;9750;48.730;10.294;2023-03-12T10:01:33;6.30;96.40
19232;DHT22;9750;48.730;10.294;2023-03-12T10:04:26;6.40;96.50
19232;DHT22;9750;48.730;10.294;2023-03-12T10:07:03;6.50;96.30
19232;DHT22;9750;48.730;10.294;2023-03-12T10:09:48;6.50;96.60
19232;DHT22;9750;48.730;10.294;2023-03-12T10:12:29;6.60;96.40
19232;DHT22;9750;48.730;10.294;2023-03-12T10:15:12;6.60;96.60
19232;DHT22;9750;48.730;10.294;2023-03-12T10:17:49;6.70;96.80
19232;DHT22;9750;48.730;10.294;2023-03-12T10:23:31;6.60;96.70
19232;DHT22;9750;48.730;10.294;2023-03-12T10:26:06;6.50;96.80
19232;DHT22;9750;48.730;10.294;2023-03-12T10:28:39;6.50;96.80
19232;DHT22;9750;48.730;10.294;2023-03-12T10:31:14;6.60;97.00
19232;DHT22;9750;48.730;10.294;2023-03-12T10:33:46;6.70;97.00
19232;DHT22;9750;48.730;10.294;2023-03-12T10:36:16;6.70;96.90
19232;DHT22;9750;48.730;10.294;2023-03-12T10:38:45;6.80;97.20
19232;DHT22;9750;48.730;10.294;2023-03-12T10:41:17;6.80;97.10
19232;DHT22;9750;48.730;10.294;2023-03-12T10:43:45;7.00;97.30
19232;DHT22;9750;48.730;10.294;2023-03-12T10:46:34;7.10;97.30
19232;DHT22;9750;48.730;10.294;2023-03-12T10:49:29;7.20;97.50
19232;DHT22;9750;48.730;10.294;2023-03-12T10:51:59;7.30;97.80
19232;DHT22;9750;48.730;10.294;2023-03-12T10:54:29;7.40;97.80
19232;DHT22;9750;48.730;10.294;2023-03-12T10:56:57;7.50;98.00
19232;DHT22;9750;48.730;10.294;2023-03-12T10:59:28;7.60;97.60
19232;DHT22;9750;48.730;10.294;2023-03-12T11:01:56;7.60;97.50
19232;DHT22;9750;48.730;10.294;2023-03-12T11:04:25;7.60;97.80
19232;DHT22;9750;48.730;10.294;2023-03-12T11:07:17;7.50;97.90
19232;DHT22;9750;48.730;10.294;2023-03-12T11:09:45;7.40;98.20
19232;DHT22;9750;48.730;10.294;2023-03-12T11:12:24;7.40;98.40
19232;DHT22;9750;48.730;10.294;2023-03-12T11:14:51;7.40;98.70
19232;DHT22;9750;48.730;10.294;2023-03-12T11:17:21;7.40;98.80
19232;DHT22;9750;48.730;10.294;2023-03-12T11:19:49;7.40;99.00
19232;DHT22;9750;48.730;10.294;2023-03-12T11:22:29;7.40;99.10
19232;DHT22;9750;48.730;10.294;2023-03-12T11:24:58;7.40;99.30
19232;DHT22;9750;48.730;10.294;2023-03-12T11:27:37;7.40;99.60
19232;DHT22;9750;48.730;10.294;2023-03-12T11:30:10;7.50;99.60
19232;DHT22;9750;48.730;10.294;2023-03-12T11:32:41;7.40;99.80
19232;DHT22;9750;48.730;10.294;2023-03-12T11:35:10;7.40;99.90
19232;DHT22;9750;48.730;10.294;2023-03-12T11:37:51;7.40;99.90
19232;DHT22;9750;48.730;10.294;2023-03-12T11:40:38;7.40;99.90
19232;DHT22;9750;48.730;10.294;2023-03-12T11:46:14;7.50;99.90
19232;DHT22;9750;48.730;10.294;2023-03-12T11:48:50;7.50;99.90
19232;DHT22;9750;48.730;10.294;2023-03-12T11:51:27;7.60;99.90
19232;DHT22;9750;48.730;10.294;2023-03-12T11:56:59;7.60;99.90
19232;DHT22;9750;48.730;10.294;2023-03-12T11:59:45;7.50;99.90
19232;DHT22;9750;48.730;10.294;2023-03-12T12:02:28;7.60;99.90
19232;DHT22;9750;48.730;10.294;2023-03-12T12:05:18;7.60;99.90
19232;DHT22;9750;48.730;10.294;2023-03-12T12:08:16;7.70;99.90
19232;DHT22;9750;48.730;10.294;2023-03-12T12:10:51;7.70;99.90
19232;DHT22;9750;48.730;10.294;2023-03-12T12:13:27;7.80;99.90
19232;DHT22;9750;48.730;10.294;2023-03-12T12:16:02;7.80;99.90
19232;DHT22;9750;48.730;10.294;2023-03-12T12:18:44;8.00;99.90
19232;DHT22;9750;48.730;10.294;2023-03-12T12:21:27;8.10;99.90
19232;DHT22;9750;48.730;10.294;2023-03-12T12:24:01;8.20;99.90
19232;DHT22;9750;48.730;10.294;2023-03-12T12:26:33;8.30;99.90
19232;DHT22;9750;48.730;10.294;2023-03-12T12:29:20;8.30;99.90
19232;DHT22;9750;48.730;10.294;2023-03-12T12:31:53;8.30;99.90
19232;DHT22;9750;48.730;10.294;2023-03-12T12:37:42;8.20;99.90
19232;DHT22;9750;48.730;10.294;2023-03-12T12:40:18;8.20;99.90
19232;DHT22;9750;48.730;10.294;2023-03-12T12:42:53;8.20;99.90
19232;DHT22;9750;48.730;10.294;2023-03-12T12:45:24;8.30;99.90
19232;DHT22;9750;48.730;10.294;2023-03-12T12:47:55;8.50;99.90
19232;DHT22;9750;48.730;10.294;2023-03-12T12:50:26;8.70;99.90
19232;DHT22;9750;48.730;10.294;2023-03-12T12:53:02;8.90;99.90
19232;DHT22;9750;48.730;10.294;2023-03-12T12:55:34;9.00;99.90
19232;DHT22;9750;48.730;10.294;2023-03-12T12:58:05;9.00;99.90
19232;DHT22;9750;48.730;10.294;2023-03-12T13:00:42;9.20;99.90
19232;DHT22;9750;48.730;10.294;2023-03-12T13:03:13;9.30;99.90
19232;DHT22;9750;48.730;10.294;2023-03-12T13:05:53;9.40;99.90
19232;DHT22;9750;48.730;10.294;2023-03-12T13:08:58;9.50;99.90
19232;DHT22;9750;48.730;10.294;2023-03-12T13:11:28;9.60;99.90
19232;DHT22;9750;48.730;10.294;2023-03-12T13:14:21;9.70;99.90
19232;DHT22;9750;48.730;10.294;2023-03-12T13:17:26;9.70;99.90
19232;DHT22;9750;48.730;10.294;2023-03-12T13:23:02;9.70;99.90
19232;DHT22;9750;48.730;10.294;2023-03-12T13:25:55;9.60;99.90
19232;DHT22;9750;48.730;10.294;2023-03-12T13:28:55;9.50;99.90
19232;DHT22;9750;48.730;10.294;2023-03-12T13:31:36;9.50;99.90
19232;DHT22;9750;48.730;10.294;2023-03-12T13:37:57;9.40;99.90
19232;DHT22;9750;48.730;10.294;2023-03-12T13:46:41;9.40;99.90
19232;DHT22;9750;48.730;10.294;2023-03-12T13:49:13;9.30;99.90
19232;DHT22;9750;48.730;10.294;2023-03-12T13:51:55;9.30;99.90
19232;DHT22;9750;48.730;10.294;2023-03-12T13:54:31;9.40;99.90
19232;DHT22;9750;48.730;10.294;2023-03-12T13:57:02;9.60;99.90
19232;DHT22;9750;48.730;10.294;2023-03-12T13:59:31;9.70;99.90
19232;DHT22;9750;48.730;10.294;2023-03-12T14:02:02;9.90;99.90
19232;DHT22;9750;48.730;10.294;2023-03-12T14:04:34;10.00;99.90
19232;DHT22;9750;48.730;10.294;2023-03-12T14:10:06;10.20;99.90
19232;DHT22;9750;48.730;10.294;2023-03-12T14:12:43;10.10;99.90
19232;DHT22;9750;48.730;10.294;2023-03-12T14:15:22;10.00;99.90
19232;DHT22;9750;48.730;10.294;2023-03-12T14:17:56;9.90;99.90
19232;DHT22;9750;48.730;10.294;2023-03-12T14:20:25;9.80;99.90
19232;DHT22;9750;48.730;10.294;2023-03-12T14:22:56;9.70;99.90
19232;DHT22;9750;48.730;10.294;2023-03-12T14:25:32;9.70;99.90
19232;DHT22;9750;48.730;10.294;2023-03-12T14:28:01;9.80;99.90
19232;DHT22;9750;48.730;10.294;2023-03-12T14:30:41;10.00;99.90
19232;DHT22;9750;48.730;10.294;2023-03-12T14:33:12;10.10;99.90
19232;DHT22;9750;48.730;10.294;2023-03-12T14:35:43;10.30;99.90
19232;DHT22;9750;48.730;10.294;2023-03-12T14:38:15;10.20;99.90
19232;DHT22;9750;48.730;10.294;2023-03-12T14:40:50;10.30;99.90
19232;DHT22;9750;48.730;10.294;2023-03-12T14:43:24;10.20;99.90
19232;DHT22;9750;48.730;10.294;2023-03-12T14:45:54;10.20;99.90
19232;DHT22;9750;48.730;10.294;2023-03-12T14:48:23;10.10;99.90
19232;DHT22;9750;48.730;10.294;2023-03-12T14:50:50;10.10;99.90
19232;DHT22;9750;48.730;10.294;2023-03-12T14:53:22;10.10;99.90
19232;DHT22;9750;48.730;10.294;2023-03-12T14:56:05;10.00;99.90
19232;DHT22;9750;48.730;10.294;2023-03-12T14:58:33;10.00;99.90
19232;DHT22;9750;48.730;10.294;2023-03-12T15:01:03;9.90;99.90
19232;DHT22;9750;48.730;10.294;2023-03-12T15:03:35;9.90;99.90
19232;DHT22;9750;48.730;10.294;2023-03-12T15:06:04;9.90;99.90
19232;DHT22;9750;48.730;10.294;2023-03-12T15:08:39;10.00;99.90
19232;DHT22;9750;48.730;10.294;2023-03-12T15:11:10;10.20;99.90
19232;DHT22;9750;48.730;10.294;2023-03-12T15:13:38;10.20;99.90
19232;DHT22;9750;48.730;10.294;2023-03-12T15:16:06;10.20;99.90
19232;DHT22;9750;48.730;10.294;2023-03-12T15:18:33;10.20;99.90
19232;DHT22;9750;48.730;10.294;2023-03-12T15:21:02;10.20;99.90
19232;DHT22;9750;48.730;10.294;2023-03-12T15:23:32;10.20;99.90
19232;DHT22;9750;48.730;10.294;2023-03-12T15:26:14;10.30;99.90
19232;DHT22;9750;48.730;10.294;2023-03-12T15:28:54;10.30;99.90
19232;DHT22;9750;48.730;10.294;2023-03-12T15:31:22;10.50;99.90
19232;DHT22;9750;48.730;10.294;2023-03-12T15:33:59;10.60;99.90
19232;DHT22;9750;48.730;10.294;2023-03-12T15:36:28;10.70;99.90
19232;DHT22;9750;48.730;10.294;2023-03-12T15:38:58;10.70;99.90
19232;DHT22;9750;48.730;10.294;2023-03-12T15:41:35;10.60;99.90
19232;DHT22;9750;48.730;10.294;2023-03-12T15:44:17;10.60;99.90
19232;DHT22;9750;48.730;10.294;2023-03-12T15:46:46;10.50;99.90
19232;DHT22;9750;48.730;10.294;2023-03-12T15:49:20;10.50;99.90
19232;DHT22;9750;48.730;10.294;2023-03-12T15:51:58;10.50;99.90
19232;DHT22;9750;48.730;10.294;2023-03-12T15:54:27;10.40;99.90
19232;DHT22;9750;48.730;10.294;2023-03-12T16:00:11;10.40;99.90
19232;DHT22;9750;48.730;10.294;2023-03-12T16:02:47;10.20;99.90
19232;DHT22;9750;48.730;10.294;2023-03-12T16:05:15;10.20;99.90
19232;DHT22;9750;48.730;10.294;2023-03-12T16:07:43;10.10;99.90
19232;DHT22;9750;48.730;10.294;2023-03-12T16:10:12;10.10;99.90
19232;DHT22;9750;48.730;10.294;2023-03-12T16:12:41;10.10;99.90
19232;DHT22;9750;48.730;10.294;2023-03-12T16:15:14;10.10;99.90
19232;DHT22;9750;48.730;10.294;2023-03-12T16:17:42;10.10;99.90
19232;DHT22;9750;48.730;10.294;2023-03-12T16:20:12;10.10;99.90
19232;DHT22;9750;48.730;10.294;2023-03-12T16:22:42;10.10;99.90
19232;DHT22;9750;48.730;10.294;2023-03-12T16:25:09;10.00;99.90
19232;DHT22;9750;48.730;10.294;2023-03-12T16:27:43;10.00;99.90
19232;DHT22;9750;48.730;10.294;2023-03-12T16:30:16;10.00;99.90
19232;DHT22;9750;48.730;10.294;2023-03-12T16:32:43;10.00;99.90
19232;DHT22;9750;48.730;10.294;2023-03-12T16:35:12;10.00;99.90
19232;DHT22;9750;48.730;10.294;2023-03-12T16:37:43;9.90;99.90
19232;DHT22;9750;48.730;10.294;2023-03-12T16:40:12;9.90;99.90
19232;DHT22;9750;48.730;10.294;2023-03-12T16:42:41;9.90;99.90
19232;DHT22;9750;48.730;10.294;2023-03-12T16:45:14;9.80;99.90
19232;DHT22;9750;48.730;10.294;2023-03-12T16:47:42;9.80;99.90
19232;DHT22;9750;48.730;10.294;2023-03-12T16:50:14;9.80;99.90
19232;DHT22;9750;48.730;10.294;2023-03-12T16:52:41;9.70;99.90
19232;DHT22;9750;48.730;10.294;2023-03-12T16:55:11;9.70;99.90